sensor_id;sensor_type;location;lat;lon;timestamp;temperature;humidity
54264;DHT22;40178;53.042;6.406;2023-04-01T00:02:19;10.00;99.90
54264;DHT22;40178;53.042;6.406;2023-04-01T00:04:44;9.90;99.90
54264;DHT22;40178;53.042;6.406;2023-04-01T00:07:10;10.00;99.90
54264;DHT22;40178;53.042;6.406;2023-04-01T00:09:36;10.00;99.90
54264;DHT22;40178;53.042;6.406;2023-04-01T00:12:03;10.00;99.90
54264;DHT22;40178;53.042;6.406;2023-04-01T00:14:28;9.90;99.90
54264;DHT22;40178;53.042;6.406;2023-04-01T00:16:55;10.00;99.90
54264;DHT22;40178;53.042;6.406;2023-04-01T00:19:20;9.90;99.90
54264;DHT22;40178;53.042;6.406;2023-04-01T00:21:46;10.00;99.90
54264;DHT22;40178;53.042;6.406;2023-04-01T00:24:12;10.00;99.90
54264;DHT22;40178;53.042;6.406;2023-04-01T00:26:37;10.00;99.90
54264;DHT22;40178;53.042;6.406;2023-04-01T00:29:03;9.90;99.90
54264;DHT22;40178;53.042;6.406;2023-04-01T00:31:28;9.90;99.90
54264;DHT22;40178;53.042;6.406;2023-04-01T00:33:55;9.90;99.90
54264;DHT22;40178;53.042;6.406;2023-04-01T00:36:21;9.90;99.90
54264;DHT22;40178;53.042;6.406;2023-04-01T00:38:47;10.00;99.90
54264;DHT22;40178;53.042;6.406;2023-04-01T00:41:14;10.00;99.90
54264;DHT22;40178;53.042;6.406;2023-04-01T00:43:46;10.00;99.90
54264;DHT22;40178;53.042;6.406;2023-04-01T00:46:12;10.00;99.90
54264;DHT22;40178;53.042;6.406;2023-04-01T00:48:47;10.00;99.90
54264;DHT22;40178;53.042;6.406;2023-04-01T00:51:26;9.90;99.90
54264;DHT22;40178;53.042;6.406;2023-04-01T00:53:56;10.00;99.90
54264;DHT22;40178;53.042;6.406;2023-04-01T00:56:25;10.00;99.90
54264;DHT22;40178;53.042;6.406;2023-04-01T00:58:58;10.00;99.90
54264;DHT22;40178;53.042;6.406;2023-04-01T01:01:25;9.90;99.90
54264;DHT22;40178;53.042;6.406;2023-04-01T01:03:51;10.00;99.90
54264;DHT22;40178;53.042;6.406;2023-04-01T01:09:45;10.00;99.90
54264;DHT22;40178;53.042;6.406;2023-04-01T01:12:25;9.90;99.90
54264;DHT22;40178;53.042;6.406;2023-04-01T01:15:11;10.00;99.90
54264;DHT22;40178;53.042;6.406;2023-04-01T01:36:59;9.80;99.90
54264;DHT22;40178;53.042;6.406;2023-04-01T01:39:28;9.90;99.90
54264;DHT22;40178;53.042;6.406;2023-04-01T01:41:57;9.90;99.90
54264;DHT22;40178;53.042;6.406;2023-04-01T01:44:25;9.90;99.90
54264;DHT22;40178;53.042;6.406;2023-04-01T01:46:52;9.80;99.90
54264;DHT22;40178;53.042;6.406;2023-04-01T01:49:18;9.90;99.90
54264;DHT22;40178;53.042;6.406;2023-04-01T01:51:45;9.90;99.90
54264;DHT22;40178;53.042;6.406;2023-04-01T01:54:17;9.90;99.90
54264;DHT22;40178;53.042;6.406;2023-04-01T01:56:46;9.90;99.90
54264;DHT22;40178;53.042;6.406;2023-04-01T01:59:14;9.80;99.90
54264;DHT22;40178;53.042;6.406;2023-04-01T02:01:49;9.90;99.90
54264;DHT22;40178;53.042;6.406;2023-04-01T02:04:16;9.90;99.90
54264;DHT22;40178;53.042;6.406;2023-04-01T02:06:50;9.80;99.90
54264;DHT22;40178;53.042;6.406;2023-04-01T02:09:18;9.90;99.90
54264;DHT22;40178;53.042;6.406;2023-04-01T02:11:53;9.80;99.90
54264;DHT22;40178;53.042;6.406;2023-04-01T02:14:50;9.90;99.90
54264;DHT22;40178;53.042;6.406;2023-04-01T02:17:18;9.90;99.90
54264;DHT22;40178;53.042;6.406;2023-04-01T02:19:48;9.80;99.90
54264;DHT22;40178;53.042;6.406;2023-04-01T02:22:20;9.70;99.90
54264;DHT22;40178;53.042;6.406;2023-04-01T02:24:48;9.90;99.90
54264;DHT22;40178;53.042;6.406;2023-04-01T02:27:14;9.70;99.90
54264;DHT22;40178;53.042;6.406;2023-04-01T02:29:40;9.70;99.90
54264;DHT22;40178;53.042;6.406;2023-04-01T02:32:07;9.70;99.90
54264;DHT22;40178;53.042;6.406;2023-04-01T02:34:34;9.80;99.90
54264;DHT22;40178;53.042;6.406;2023-04-01T02:37:00;9.70;99.90
54264;DHT22;40178;53.042;6.406;2023-04-01T02:39:26;9.70;99.90
54264;DHT22;40178;53.042;6.406;2023-04-01T02:41:52;9.60;99.90
54264;DHT22;40178;53.042;6.406;2023-04-01T02:44:18;9.70;99.90
54264;DHT22;40178;53.042;6.406;2023-04-01T02:46:44;9.60;99.90
54264;DHT22;40178;53.042;6.406;2023-04-01T02:49:10;9.70;99.90
54264;DHT22;40178;53.042;6.406;2023-04-01T02:51:36;9.60;99.90
54264;DHT22;40178;53.042;6.406;2023-04-01T02:54:02;9.70;99.90
54264;DHT22;40178;53.042;6.406;2023-04-01T02:56:27;9.70;99.90
54264;DHT22;40178;53.042;6.406;2023-04-01T02:58:54;9.70;99.90
54264;DHT22;40178;53.042;6.406;2023-04-01T03:01:21;9.70;99.90
54264;DHT22;40178;53.042;6.406;2023-04-01T03:03:47;9.70;99.90
54264;DHT22;40178;53.042;6.406;2023-04-01T03:06:15;9.60;99.90
54264;DHT22;40178;53.042;6.406;2023-04-01T03:08:41;9.70;99.90
54264;DHT22;40178;53.042;6.406;2023-04-01T03:11:06;9.60;99.90
54264;DHT22;40178;53.042;6.406;2023-04-01T03:13:32;9.60;99.90
54264;DHT22;40178;53.042;6.406;2023-04-01T03:15:58;9.70;99.90
54264;DHT22;40178;53.042;6.406;2023-04-01T03:18:24;9.60;99.90
54264;DHT22;40178;53.042;6.406;2023-04-01T03:20:49;9.70;99.90
54264;DHT22;40178;53.042;6.406;2023-04-01T03:23:15;9.50;99.90
54264;DHT22;40178;53.042;6.406;2023-04-01T03:25:43;9.70;99.90
54264;DHT22;40178;53.042;6.406;2023-04-01T03:28:09;9.50;99.90
54264;DHT22;40178;53.042;6.406;2023-04-01T03:30:35;9.60;99.90
54264;DHT22;40178;53.042;6.406;2023-04-01T03:33:01;9.60;99.90
54264;DHT22;40178;53.042;6.406;2023-04-01T03:35:27;9.50;99.90
54264;DHT22;40178;53.042;6.406;2023-04-01T03:37:53;9.50;99.90
54264;DHT22;40178;53.042;6.406;2023-04-01T03:40:20;9.60;99.90
54264;DHT22;40178;53.042;6.406;2023-04-01T03:42:46;9.70;99.90
54264;DHT22;40178;53.042;6.406;2023-04-01T03:45:12;9.70;99.90
54264;DHT22;40178;53.042;6.406;2023-04-01T03:47:39;9.60;99.90
54264;DHT22;40178;53.042;6.406;2023-04-01T03:50:06;9.60;99.90
54264;DHT22;40178;53.042;6.406;2023-04-01T03:52:32;9.60;99.90
54264;DHT22;40178;53.042;6.406;2023-04-01T03:54:58;9.70;99.90
54264;DHT22;40178;53.042;6.406;2023-04-01T03:57:23;9.60;99.90
54264;DHT22;40178;53.042;6.406;2023-04-01T03:59:49;9.60;99.90
54264;DHT22;40178;53.042;6.406;2023-04-01T04:02:15;9.70;99.90
54264;DHT22;40178;53.042;6.406;2023-04-01T04:04:40;9.60;99.90
54264;DHT22;40178;53.042;6.406;2023-04-01T04:07:06;9.60;99.90
54264;DHT22;40178;53.042;6.406;2023-04-01T04:09:32;9.60;99.90
54264;DHT22;40178;53.042;6.406;2023-04-01T04:11:59;9.60;99.90
54264;DHT22;40178;53.042;6.406;2023-04-01T04:14:24;9.70;99.90
54264;DHT22;40178;53.042;6.406;2023-04-01T04:16:50;9.60;99.90
54264;DHT22;40178;53.042;6.406;2023-04-01T04:19:16;9.60;99.90
54264;DHT22;40178;53.042;6.406;2023-04-01T04:21:41;9.60;99.90
54264;DHT22;40178;53.042;6.406;2023-04-01T04:24:08;9.80;99.90
54264;DHT22;40178;53.042;6.406;2023-04-01T04:26:33;9.80;99.90
54264;DHT22;40178;53.042;6.406;2023-04-01T04:28:59;9.80;99.90
54264;DHT22;40178;53.042;6.406;2023-04-01T04:31:25;9.70;99.90
54264;DHT22;40178;53.042;6.406;2023-04-01T04:33:52;9.70;99.90
54264;DHT22;40178;53.042;6.406;2023-04-01T04:36:18;9.70;99.90
54264;DHT22;40178;53.042;6.406;2023-04-01T04:38:44;9.60;99.90
54264;DHT22;40178;53.042;6.406;2023-04-01T04:41:11;9.80;99.90
54264;DHT22;40178;53.042;6.406;2023-04-01T04:43:38;9.70;99.90
54264;DHT22;40178;53.042;6.406;2023-04-01T04:46:09;9.90;99.90
54264;DHT22;40178;53.042;6.406;2023-04-01T04:48:35;9.70;99.90
54264;DHT22;40178;53.042;6.406;2023-04-01T04:51:01;9.90;99.90
54264;DHT22;40178;53.042;6.406;2023-04-01T04:53:27;9.90;99.90
54264;DHT22;40178;53.042;6.406;2023-04-01T04:55:53;9.70;99.90
54264;DHT22;40178;53.042;6.406;2023-04-01T04:58:19;9.70;99.90
54264;DHT22;40178;53.042;6.406;2023-04-01T05:00:45;9.70;99.90
54264;DHT22;40178;53.042;6.406;2023-04-01T05:03:11;9.70;99.90
54264;DHT22;40178;53.042;6.406;2023-04-01T05:05:37;9.70;99.90
54264;DHT22;40178;53.042;6.406;2023-04-01T05:08:03;9.70;99.90
54264;DHT22;40178;53.042;6.406;2023-04-01T05:10:29;9.70;99.90
54264;DHT22;40178;53.042;6.406;2023-04-01T05:12:56;9.60;99.90
54264;DHT22;40178;53.042;6.406;2023-04-01T05:15:21;9.70;99.90
54264;DHT22;40178;53.042;6.406;2023-04-01T05:17:47;9.80;99.90
54264;DHT22;40178;53.042;6.406;2023-04-01T05:20:14;9.90;99.90
54264;DHT22;40178;53.042;6.406;2023-04-01T05:22:40;9.90;99.90
54264;DHT22;40178;53.042;6.406;2023-04-01T05:25:06;9.80;99.90
54264;DHT22;40178;53.042;6.406;2023-04-01T05:27:32;9.80;99.90
54264;DHT22;40178;53.042;6.406;2023-04-01T05:29:58;9.90;99.90
54264;DHT22;40178;53.042;6.406;2023-04-01T05:32:23;9.70;99.90
54264;DHT22;40178;53.042;6.406;2023-04-01T05:34:53;9.90;99.90
54264;DHT22;40178;53.042;6.406;2023-04-01T05:37:19;9.70;99.90
54264;DHT22;40178;53.042;6.406;2023-04-01T05:39:45;9.70;99.90
54264;DHT22;40178;53.042;6.406;2023-04-01T05:42:11;9.70;99.90
54264;DHT22;40178;53.042;6.406;2023-04-01T05:44:36;9.90;99.90
54264;DHT22;40178;53.042;6.406;2023-04-01T05:47:04;10.00;99.90
54264;DHT22;40178;53.042;6.406;2023-04-01T05:49:29;9.80;99.90
54264;DHT22;40178;53.042;6.406;2023-04-01T05:51:56;10.00;99.90
54264;DHT22;40178;53.042;6.406;2023-04-01T05:54:21;9.90;99.90
54264;DHT22;40178;53.042;6.406;2023-04-01T05:56:47;10.00;99.90
54264;DHT22;40178;53.042;6.406;2023-04-01T05:59:13;10.00;99.90
54264;DHT22;40178;53.042;6.406;2023-04-01T06:01:39;10.00;99.90
54264;DHT22;40178;53.042;6.406;2023-04-01T06:04:04;10.00;99.90
54264;DHT22;40178;53.042;6.406;2023-04-01T06:06:31;10.00;99.90
54264;DHT22;40178;53.042;6.406;2023-04-01T06:09:12;10.00;99.90
54264;DHT22;40178;53.042;6.406;2023-04-01T06:14:47;10.00;99.90
54264;DHT22;40178;53.042;6.406;2023-04-01T06:20:43;10.00;99.90
54264;DHT22;40178;53.042;6.406;2023-04-01T06:54:20;9.80;99.90
54264;DHT22;40178;53.042;6.406;2023-04-01T06:56:49;10.00;99.90
54264;DHT22;40178;53.042;6.406;2023-04-01T06:59:25;9.90;99.90
54264;DHT22;40178;53.042;6.406;2023-04-01T07:01:57;10.00;99.90
54264;DHT22;40178;53.042;6.406;2023-04-01T07:04:36;9.90;99.90
54264;DHT22;40178;53.042;6.406;2023-04-01T07:07:10;9.90;99.90
54264;DHT22;40178;53.042;6.406;2023-04-01T07:09:41;9.90;99.90
54264;DHT22;40178;53.042;6.406;2023-04-01T07:12:24;10.10;99.90
54264;DHT22;40178;53.042;6.406;2023-04-01T07:14:56;10.10;99.90
54264;DHT22;40178;53.042;6.406;2023-04-01T07:17:28;10.10;99.90
54264;DHT22;40178;53.042;6.406;2023-04-01T07:20:05;10.10;99.90
54264;DHT22;40178;53.042;6.406;2023-04-01T07:22:40;10.10;99.90
54264;DHT22;40178;53.042;6.406;2023-04-01T07:25:15;10.20;99.90
54264;DHT22;40178;53.042;6.406;2023-04-01T07:27:42;10.00;99.90
54264;DHT22;40178;53.042;6.406;2023-04-01T07:30:19;10.20;99.90
54264;DHT22;40178;53.042;6.406;2023-04-01T07:38:15;10.20;99.90
54264;DHT22;40178;53.042;6.406;2023-04-01T07:41:00;10.20;99.90
54264;DHT22;40178;53.042;6.406;2023-04-01T07:43:34;10.30;99.90
54264;DHT22;40178;53.042;6.406;2023-04-01T07:49:07;10.30;99.90
54264;DHT22;40178;53.042;6.406;2023-04-01T07:56:54;10.30;99.90
54264;DHT22;40178;53.042;6.406;2023-04-01T07:59:44;10.10;99.90
54264;DHT22;40178;53.042;6.406;2023-04-01T08:07:49;10.30;99.90
54264;DHT22;40178;53.042;6.406;2023-04-01T08:13:03;10.10;99.90
54264;DHT22;40178;53.042;6.406;2023-04-01T08:16:08;10.20;99.90
54264;DHT22;40178;53.042;6.406;2023-04-01T08:21:11;10.30;99.90
54264;DHT22;40178;53.042;6.406;2023-04-01T08:23:52;10.30;99.90
54264;DHT22;40178;53.042;6.406;2023-04-01T08:29:11;10.20;99.90
54264;DHT22;40178;53.042;6.406;2023-04-01T08:31:48;10.20;99.90
54264;DHT22;40178;53.042;6.406;2023-04-01T08:34:34;10.30;99.90
54264;DHT22;40178;53.042;6.406;2023-04-01T08:37:06;10.40;99.90
54264;DHT22;40178;53.042;6.406;2023-04-01T08:39:42;10.40;99.90
54264;DHT22;40178;53.042;6.406;2023-04-01T08:54:45;10.30;99.90
54264;DHT22;40178;53.042;6.406;2023-04-01T09:11:59;10.50;99.90
54264;DHT22;40178;53.042;6.406;2023-04-01T09:20:30;10.70;99.90
54264;DHT22;40178;53.042;6.406;2023-04-01T09:28:58;10.80;99.90
54264;DHT22;40178;53.042;6.406;2023-04-01T09:31:44;10.80;99.90
54264;DHT22;40178;53.042;6.406;2023-04-01T09:37:35;10.70;99.90
54264;DHT22;40178;53.042;6.406;2023-04-01T09:43:21;10.80;99.90
54264;DHT22;40178;53.042;6.406;2023-04-01T09:54:53;10.90;99.90
54264;DHT22;40178;53.042;6.406;2023-04-01T10:11:51;10.30;99.90
54264;DHT22;40178;53.042;6.406;2023-04-01T10:25:57;10.20;99.90
54264;DHT22;40178;53.042;6.406;2023-04-01T10:32:16;10.10;99.90
54264;DHT22;40178;53.042;6.406;2023-04-01T10:34:56;10.00;99.90
54264;DHT22;40178;53.042;6.406;2023-04-01T10:40:35;10.00;99.90
54264;DHT22;40178;53.042;6.406;2023-04-01T10:43:28;10.00;99.90
54264;DHT22;40178;53.042;6.406;2023-04-01T11:06:46;10.00;99.90
54264;DHT22;40178;53.042;6.406;2023-04-01T11:20:24;10.00;99.90
54264;DHT22;40178;53.042;6.406;2023-04-01T11:25:55;10.10;99.90
54264;DHT22;40178;53.042;6.406;2023-04-01T11:28:44;10.10;99.90
54264;DHT22;40178;53.042;6.406;2023-04-01T11:33:50;9.80;99.90
54264;DHT22;40178;53.042;6.406;2023-04-01T11:36:45;9.80;99.90
54264;DHT22;40178;53.042;6.406;2023-04-01T11:39:38;9.90;99.90
54264;DHT22;40178;53.042;6.406;2023-04-01T11:42:30;9.80;99.90
54264;DHT22;40178;53.042;6.406;2023-04-01T11:51:31;9.80;99.90
54264;DHT22;40178;53.042;6.406;2023-04-01T11:57:06;9.90;99.90
54264;DHT22;40178;53.042;6.406;2023-04-01T11:59:58;10.00;99.90
54264;DHT22;40178;53.042;6.406;2023-04-01T12:02:48;10.00;99.90
54264;DHT22;40178;53.042;6.406;2023-04-01T12:08:21;10.10;99.90
54264;DHT22;40178;53.042;6.406;2023-04-01T12:13:57;10.20;99.90
54264;DHT22;40178;53.042;6.406;2023-04-01T12:22:34;10.30;99.90
54264;DHT22;40178;53.042;6.406;2023-04-01T12:27:40;10.10;99.90
54264;DHT22;40178;53.042;6.406;2023-04-01T12:41:44;9.80;99.90
54264;DHT22;40178;53.042;6.406;2023-04-01T12:53:12;9.90;99.90
54264;DHT22;40178;53.042;6.406;2023-04-01T12:55:43;9.80;99.90
54264;DHT22;40178;53.042;6.406;2023-04-01T13:04:45;9.80;99.90
54264;DHT22;40178;53.042;6.406;2023-04-01T13:12:51;9.80;99.90
54264;DHT22;40178;53.042;6.406;2023-04-01T13:26:13;9.80;99.90
54264;DHT22;40178;53.042;6.406;2023-04-01T13:42:45;9.40;99.90
54264;DHT22;40178;53.042;6.406;2023-04-01T13:45:17;9.50;99.90
54264;DHT22;40178;53.042;6.406;2023-04-01T13:48:23;9.30;99.90
54264;DHT22;40178;53.042;6.406;2023-04-01T13:54:04;10.20;99.90
54264;DHT22;40178;53.042;6.406;2023-04-01T13:57:07;9.40;99.90
54264;DHT22;40178;53.042;6.406;2023-04-01T14:05:02;9.30;99.90
54264;DHT22;40178;53.042;6.406;2023-04-01T14:07:45;9.20;99.90
54264;DHT22;40178;53.042;6.406;2023-04-01T14:16:11;9.10;99.90
54264;DHT22;40178;53.042;6.406;2023-04-01T14:29:24;9.00;99.90
54264;DHT22;40178;53.042;6.406;2023-04-01T14:35:15;8.90;99.90
54264;DHT22;40178;53.042;6.406;2023-04-01T14:40:28;9.00;99.90
54264;DHT22;40178;53.042;6.406;2023-04-01T14:43:23;9.30;99.90
54264;DHT22;40178;53.042;6.406;2023-04-01T14:46:08;9.10;99.90
54264;DHT22;40178;53.042;6.406;2023-04-01T14:54:02;9.00;99.90
54264;DHT22;40178;53.042;6.406;2023-04-01T14:56:42;8.90;99.90
54264;DHT22;40178;53.042;6.406;2023-04-01T15:29:25;8.50;99.90
54264;DHT22;40178;53.042;6.406;2023-04-01T15:37:33;8.40;99.90
54264;DHT22;40178;53.042;6.406;2023-04-01T15:53:44;8.30;99.90
54264;DHT22;40178;53.042;6.406;2023-04-01T16:01:35;8.20;99.90
54264;DHT22;40178;53.042;6.406;2023-04-01T16:07:11;8.20;99.90
54264;DHT22;40178;53.042;6.406;2023-04-01T16:09:59;8.10;99.90
54264;DHT22;40178;53.042;6.406;2023-04-01T16:18:02;8.00;99.90
54264;DHT22;40178;53.042;6.406;2023-04-01T16:20:56;8.00;99.90
54264;DHT22;40178;53.042;6.406;2023-04-01T16:23:56;8.00;99.90
54264;DHT22;40178;53.042;6.406;2023-04-01T16:37:34;8.30;99.90
54264;DHT22;40178;53.042;6.406;2023-04-01T16:40:09;7.70;99.90
54264;DHT22;40178;53.042;6.406;2023-04-01T16:42:49;7.90;99.90
54264;DHT22;40178;53.042;6.406;2023-04-01T16:51:09;7.50;99.90
54264;DHT22;40178;53.042;6.406;2023-04-01T16:53:47;7.50;99.90
54264;DHT22;40178;53.042;6.406;2023-04-01T16:59:02;7.40;99.90
54264;DHT22;40178;53.042;6.406;2023-04-01T17:02:22;7.50;99.90
54264;DHT22;40178;53.042;6.406;2023-04-01T17:04:37;7.40;99.90
54264;DHT22;40178;53.042;6.406;2023-04-01T17:13:16;7.30;99.90
54264;DHT22;40178;53.042;6.406;2023-04-01T17:21:07;7.30;99.90
54264;DHT22;40178;53.042;6.406;2023-04-01T17:23:53;7.10;99.90
54264;DHT22;40178;53.042;6.406;2023-04-01T17:31:53;7.20;99.90
54264;DHT22;40178;53.042;6.406;2023-04-01T17:52:17;7.70;99.90
54264;DHT22;40178;53.042;6.406;2023-04-01T17:55:15;6.80;99.90
54264;DHT22;40178;53.042;6.406;2023-04-01T17:57:55;7.90;99.90
54264;DHT22;40178;53.042;6.406;2023-04-01T18:00:59;6.70;99.90
54264;DHT22;40178;53.042;6.406;2023-04-01T18:03:53;6.20;99.90
54264;DHT22;40178;53.042;6.406;2023-04-01T18:42:08;6.50;99.90
54264;DHT22;40178;53.042;6.406;2023-04-01T18:44:48;6.50;99.90
54264;DHT22;40178;53.042;6.406;2023-04-01T18:50:37;6.40;99.90
54264;DHT22;40178;53.042;6.406;2023-04-01T18:53:22;6.40;99.90
54264;DHT22;40178;53.042;6.406;2023-04-01T18:55:56;6.40;99.90
54264;DHT22;40178;53.042;6.406;2023-04-01T19:01:56;6.40;99.90
54264;DHT22;40178;53.042;6.406;2023-04-01T19:10:00;6.30;99.90
54264;DHT22;40178;53.042;6.406;2023-04-01T19:12:41;6.30;99.90
54264;DHT22;40178;53.042;6.406;2023-04-01T19:17:51;6.30;99.90
54264;DHT22;40178;53.042;6.406;2023-04-01T19:20:40;6.30;99.90
54264;DHT22;40178;53.042;6.406;2023-04-01T19:26:13;6.30;99.90
54264;DHT22;40178;53.042;6.406;2023-04-01T19:34:12;6.20;99.90
54264;DHT22;40178;53.042;6.406;2023-04-01T19:36:53;6.10;99.90
54264;DHT22;40178;53.042;6.406;2023-04-01T19:41:50;6.10;99.90
54264;DHT22;40178;53.042;6.406;2023-04-01T20:00:39;5.90;99.90
54264;DHT22;40178;53.042;6.406;2023-04-01T20:08:22;5.80;99.90
54264;DHT22;40178;53.042;6.406;2023-04-01T20:11:00;5.80;99.90
54264;DHT22;40178;53.042;6.406;2023-04-01T20:16:53;5.70;99.90
54264;DHT22;40178;53.042;6.406;2023-04-01T20:19:39;5.70;99.90
54264;DHT22;40178;53.042;6.406;2023-04-01T20:24:44;5.70;99.90
54264;DHT22;40178;53.042;6.406;2023-04-01T20:33:01;5.60;99.90
54264;DHT22;40178;53.042;6.406;2023-04-01T20:35:43;5.50;99.90
54264;DHT22;40178;53.042;6.406;2023-04-01T20:41:26;5.50;99.90
54264;DHT22;40178;53.042;6.406;2023-04-01T20:44:11;5.50;99.90
54264;DHT22;40178;53.042;6.406;2023-04-01T20:52:25;5.50;99.90
54264;DHT22;40178;53.042;6.406;2023-04-01T20:55:47;5.40;99.90
54264;DHT22;40178;53.042;6.406;2023-04-01T20:57:51;5.40;99.90
54264;DHT22;40178;53.042;6.406;2023-04-01T21:00:27;5.40;99.90
54264;DHT22;40178;53.042;6.406;2023-04-01T21:03:08;5.30;99.90
54264;DHT22;40178;53.042;6.406;2023-04-01T21:14:38;5.30;99.90
54264;DHT22;40178;53.042;6.406;2023-04-01T21:25:33;5.30;99.90
54264;DHT22;40178;53.042;6.406;2023-04-01T21:30:57;5.30;99.90
54264;DHT22;40178;53.042;6.406;2023-04-01T21:50:36;5.20;99.90
54264;DHT22;40178;53.042;6.406;2023-04-01T21:56:21;5.20;99.90
54264;DHT22;40178;53.042;6.406;2023-04-01T22:02:04;5.20;99.90
54264;DHT22;40178;53.042;6.406;2023-04-01T22:05:11;5.20;99.90
54264;DHT22;40178;53.042;6.406;2023-04-01T22:07:59;5.20;99.90
54264;DHT22;40178;53.042;6.406;2023-04-01T22:19:15;5.20;99.90
54264;DHT22;40178;53.042;6.406;2023-04-01T22:22:00;5.10;99.90
54264;DHT22;40178;53.042;6.406;2023-04-01T22:24:37;5.10;99.90
54264;DHT22;40178;53.042;6.406;2023-04-01T22:32:52;5.10;99.90
54264;DHT22;40178;53.042;6.406;2023-04-01T22:38:03;5.00;99.90
54264;DHT22;40178;53.042;6.406;2023-04-01T22:41:14;5.00;99.90
54264;DHT22;40178;53.042;6.406;2023-04-01T22:43:44;4.90;99.90
54264;DHT22;40178;53.042;6.406;2023-04-01T22:46:30;4.90;99.90
54264;DHT22;40178;53.042;6.406;2023-04-01T22:49:18;4.90;99.90
54264;DHT22;40178;53.042;6.406;2023-04-01T22:52:01;4.80;99.90
54264;DHT22;40178;53.042;6.406;2023-04-01T22:54:42;4.80;99.90
54264;DHT22;40178;53.042;6.406;2023-04-01T22:57:28;4.70;99.90
54264;DHT22;40178;53.042;6.406;2023-04-01T23:00:06;4.70;99.90
54264;DHT22;40178;53.042;6.406;2023-04-01T23:05:30;4.60;99.90
54264;DHT22;40178;53.042;6.406;2023-04-01T23:11:07;4.50;99.90
54264;DHT22;40178;53.042;6.406;2023-04-01T23:14:06;4.50;99.90
54264;DHT22;40178;53.042;6.406;2023-04-01T23:16:42;4.50;99.90
54264;DHT22;40178;53.042;6.406;2023-04-01T23:19:18;4.40;99.90
54264;DHT22;40178;53.042;6.406;2023-04-01T23:25:03;4.40;99.90
54264;DHT22;40178;53.042;6.406;2023-04-01T23:27:40;4.40;99.90
54264;DHT22;40178;53.042;6.406;2023-04-01T23:38:23;4.40;99.90
54264;DHT22;40178;53.042;6.406;2023-04-01T23:40:52;4.40;99.90
54264;DHT22;40178;53.042;6.406;2023-04-01T23:43:28;4.30;99.90
54264;DHT22;40178;53.042;6.406;2023-04-01T23:45:56;4.30;99.90
54264;DHT22;40178;53.042;6.406;2023-04-01T23:48:29;4.30;99.90
54264;DHT22;40178;53.042;6.406;2023-04-01T23:50:56;4.30;99.90
54264;DHT22;40178;53.042;6.406;2023-04-01T23:53:32;4.30;99.90
54264;DHT22;40178;53.042;6.406;2023-04-01T23:55:59;4.30;99.90
